createdAt,value
2019-05-10T00:00:58.990Z,10.49
2019-05-10T00:03:48.569Z,10.46
2019-05-10T00:06:37.795Z,10.43
2019-05-10T00:09:09.050Z,10.41
2019-05-10T00:11:49.332Z,10.37
2019-05-10T00:14:25.580Z,10.39
2019-05-10T00:16:58.108Z,10.31
2019-05-10T00:19:29.514Z,10.33
2019-05-10T00:22:01.328Z,10.27
2019-05-10T00:24:33.049Z,10.28
2019-05-10T00:27:04.834Z,10.25
2019-05-10T00:29:36.465Z,10.22
2019-05-10T00:32:08.157Z,10.19
2019-05-10T00:34:40.755Z,10.14
2019-05-10T00:37:12.483Z,10.10
2019-05-10T00:39:44.998Z,10.08
2019-05-10T00:42:16.655Z,10.06
2019-05-10T00:44:48.300Z,10.03
2019-05-10T00:47:19.935Z,10.01
2019-05-10T00:49:51.753Z,10.03
2019-05-10T00:52:23.467Z,10.05
2019-05-10T00:54:55.237Z,10.06
2019-05-10T00:57:26.980Z,10.08
2019-05-10T00:59:58.639Z,10.08
2019-05-10T01:02:30.247Z,10.07
2019-05-10T01:05:02.055Z,10.04
2019-05-10T01:07:33.707Z,9.99
2019-05-10T01:10:08.810Z,9.96
2019-05-10T01:12:40.600Z,9.90
2019-05-10T01:15:12.433Z,9.89
2019-05-10T01:17:44.238Z,9.84
2019-05-10T01:20:15.961Z,9.77
2019-05-10T01:22:47.676Z,9.76
2019-05-10T01:25:34.031Z,9.72
2019-05-10T01:27:52.872Z,9.70
2019-05-10T01:30:24.628Z,9.70
2019-05-10T01:32:56.531Z,9.68
2019-05-10T01:35:28.256Z,9.70
2019-05-10T01:37:59.843Z,9.69
2019-05-10T01:40:31.519Z,9.69
2019-05-10T01:43:03.223Z,9.63
2019-05-10T01:45:34.816Z,9.58
2019-05-10T01:48:06.528Z,9.53
2019-05-10T01:50:38.189Z,9.50
2019-05-10T01:53:09.901Z,9.45
2019-05-10T01:55:51.534Z,9.44
2019-05-10T01:58:14.901Z,9.45
2019-05-10T02:00:46.537Z,9.47
2019-05-10T02:03:18.202Z,9.51
2019-05-10T02:05:49.834Z,9.45
2019-05-10T02:08:21.686Z,9.41
2019-05-10T02:10:53.391Z,9.40
2019-05-10T02:13:24.931Z,9.37
2019-05-10T02:15:56.664Z,9.46
2019-05-10T02:18:28.520Z,9.41
2019-05-10T02:21:00.324Z,9.44
2019-05-10T02:23:32.093Z,9.46
2019-05-10T02:26:09.540Z,9.54
2019-05-10T02:28:37.078Z,9.62
2019-05-10T02:31:08.636Z,9.69
2019-05-10T02:33:40.380Z,9.74
2019-05-10T02:36:12.068Z,9.81
2019-05-10T02:38:43.824Z,9.81
2019-05-10T02:41:15.690Z,9.85
2019-05-10T02:43:47.393Z,9.94
2019-05-10T02:46:19.116Z,10.00
2019-05-10T02:48:50.745Z,10.10
2019-05-10T02:51:22.360Z,10.16
2019-05-10T02:53:54.370Z,10.21
2019-05-10T02:56:31.457Z,10.27
2019-05-10T02:59:01.557Z,10.30
2019-05-10T03:01:34.687Z,10.30
2019-05-10T03:04:06.377Z,10.29
2019-05-10T03:06:41.191Z,10.29
2019-05-10T03:09:14.194Z,10.31
2019-05-10T03:11:47.906Z,10.36
2019-05-10T03:14:20.406Z,10.40
2019-05-10T03:16:52.241Z,10.45
2019-05-10T03:19:24.741Z,10.51
2019-05-10T03:22:07.096Z,10.55
2019-05-10T03:24:38.943Z,10.59
2019-05-10T03:27:10.631Z,10.64
2019-05-10T03:29:42.383Z,10.64
2019-05-10T03:32:14.181Z,10.66
2019-05-10T03:34:46.139Z,10.71
2019-05-10T03:37:18.018Z,10.77
2019-05-10T03:39:49.874Z,10.80
2019-05-10T03:42:21.743Z,10.83
2019-05-10T03:44:53.778Z,10.90
2019-05-10T03:47:25.535Z,11.03
2019-05-10T03:49:57.339Z,11.12
2019-05-10T03:52:29.221Z,11.21
2019-05-10T03:55:03.259Z,11.36
2019-05-10T03:57:34.902Z,11.55
2019-05-10T04:00:14.276Z,11.78
2019-05-10T04:02:46.172Z,11.97
2019-05-10T04:05:18.384Z,12.18
2019-05-10T04:07:50.283Z,12.18
2019-05-10T04:10:22.155Z,12.29
2019-05-10T04:12:53.742Z,12.38
2019-05-10T04:15:25.581Z,12.42
2019-05-10T04:17:57.224Z,12.58
2019-05-10T04:20:28.841Z,12.60
2019-05-10T04:23:01.436Z,12.88
2019-05-10T04:25:35.511Z,13.12
2019-05-10T04:28:08.775Z,13.21
2019-05-10T04:30:40.720Z,13.25
2019-05-10T04:33:13.055Z,13.09
2019-05-10T04:35:44.929Z,13.03
2019-05-10T04:38:18.014Z,12.90
2019-05-10T04:40:49.706Z,12.87
2019-05-10T04:43:21.430Z,12.88
2019-05-10T04:45:53.027Z,12.87
2019-05-10T04:48:26.116Z,12.79
2019-05-10T04:50:57.791Z,12.87
2019-05-10T04:53:29.437Z,12.98
2019-05-10T04:56:01.108Z,13.25
2019-05-10T04:58:32.662Z,13.25
2019-05-10T05:01:04.373Z,13.41
2019-05-10T05:03:36.140Z,13.53
2019-05-10T05:06:07.829Z,13.73
2019-05-10T05:08:39.631Z,13.89
2019-05-10T05:11:11.375Z,14.03
2019-05-10T05:13:45.330Z,14.04
2019-05-10T05:16:18.247Z,14.06
2019-05-10T05:18:50.187Z,14.17
2019-05-10T05:21:21.894Z,14.25
2019-05-10T05:23:53.529Z,14.23
2019-05-10T05:26:25.136Z,14.22
2019-05-10T05:28:56.959Z,14.15
2019-05-10T05:31:28.739Z,13.98
2019-05-10T05:34:05.069Z,13.86
2019-05-10T05:36:33.960Z,13.84
2019-05-10T05:39:07.688Z,13.87
2019-05-10T05:41:48.729Z,13.87
2019-05-10T05:44:14.047Z,13.89
2019-05-10T05:46:46.795Z,13.90
2019-05-10T05:49:18.603Z,14.04
2019-05-10T05:51:50.247Z,14.26
2019-05-10T05:54:22.643Z,14.41
2019-05-10T05:56:54.820Z,14.50
2019-05-10T05:59:27.619Z,14.72
2019-05-10T06:02:00.889Z,15.04
2019-05-10T06:04:32.694Z,15.27
2019-05-10T06:07:05.600Z,15.50
2019-05-10T06:09:39.379Z,15.68
2019-05-10T06:12:12.806Z,15.83
2019-05-10T06:14:49.791Z,16.12
2019-05-10T06:17:18.042Z,16.10
2019-05-10T06:19:49.892Z,15.82
2019-05-10T06:22:21.609Z,15.61
2019-05-10T06:24:53.984Z,15.50
2019-05-10T06:27:25.983Z,15.45
2019-05-10T06:29:58.648Z,15.57
2019-05-10T06:32:37.902Z,15.63
2019-05-10T06:35:14.207Z,15.88
2019-05-10T06:37:42.922Z,16.16
2019-05-10T06:40:15.084Z,16.23
2019-05-10T06:42:46.654Z,16.53
2019-05-10T06:45:18.319Z,16.87
2019-05-10T06:47:53.287Z,17.22
2019-05-10T06:50:30.389Z,17.35
2019-05-10T06:53:00.399Z,17.60
2019-05-10T06:55:29.878Z,17.81
2019-05-10T06:58:01.441Z,18.17
2019-05-10T07:00:38.233Z,18.28
2019-05-10T07:03:06.335Z,18.46
2019-05-10T07:05:38.526Z,18.79
2019-05-10T07:08:19.753Z,19.29
2019-05-10T07:10:43.465Z,19.58
2019-05-10T07:13:15.073Z,19.58
2019-05-10T07:15:46.546Z,19.63
2019-05-10T07:18:22.663Z,20.37
2019-05-10T07:20:52.985Z,20.53
2019-05-10T07:23:24.590Z,20.35
2019-05-10T07:25:56.156Z,20.28
2019-05-10T07:28:28.694Z,19.99
2019-05-10T07:31:00.717Z,20.10
2019-05-10T07:33:37.234Z,20.88
2019-05-10T07:36:14.399Z,21.12
2019-05-10T07:38:39.983Z,20.60
2019-05-10T07:41:19.593Z,20.53
2019-05-10T07:43:48.308Z,20.72
2019-05-10T07:46:21.389Z,20.55
2019-05-10T07:48:57.828Z,20.14
2019-05-10T07:51:30.483Z,20.14
2019-05-10T07:54:04.750Z,19.77
2019-05-10T07:56:38.980Z,19.90
2019-05-10T07:59:08.732Z,20.33
2019-05-10T08:01:40.301Z,20.52
2019-05-10T08:04:13.143Z,20.09
2019-05-10T08:06:51.137Z,19.90
2019-05-10T08:09:21.446Z,19.77
2019-05-10T08:11:54.011Z,19.64
2019-05-10T08:14:28.812Z,19.09
2019-05-10T08:17:05.860Z,18.63
2019-05-10T08:19:37.649Z,18.35
2019-05-10T08:22:10.233Z,18.21
2019-05-10T08:24:46.521Z,18.44
2019-05-10T08:27:23.021Z,19.26
2019-05-10T08:30:19.661Z,19.95
2019-05-10T08:32:30.031Z,19.77
2019-05-10T08:35:05.031Z,19.14
2019-05-10T08:37:38.146Z,18.30
2019-05-10T08:40:35.157Z,17.80
2019-05-10T08:43:16.659Z,17.52
2019-05-10T08:45:49.542Z,17.58
2019-05-10T08:48:20.006Z,17.60
2019-05-10T08:50:57.122Z,17.68
2019-05-10T08:53:25.044Z,17.57
2019-05-10T08:55:58.797Z,17.37
2019-05-10T08:58:36.977Z,17.03
2019-05-10T09:01:20.084Z,16.84
2019-05-10T09:03:38.264Z,16.77
2019-05-10T09:06:14.283Z,16.68
2019-05-10T09:08:43.408Z,16.64
2019-05-10T09:11:16.391Z,16.57
2019-05-10T09:13:48.835Z,16.45
2019-05-10T09:16:23.677Z,16.36
2019-05-10T09:18:56.884Z,16.35
2019-05-10T09:21:29.183Z,16.37
2019-05-10T09:24:06.242Z,16.44
2019-05-10T09:26:34.906Z,16.57
2019-05-10T09:29:06.575Z,16.54
2019-05-10T09:31:39.382Z,16.57
2019-05-10T09:34:12.297Z,16.63
2019-05-10T09:36:47.018Z,16.81
2019-05-10T09:39:21.783Z,17.20
2019-05-10T09:41:52.753Z,17.26
2019-05-10T09:44:24.092Z,17.35
2019-05-10T09:46:55.737Z,17.27
2019-05-10T09:49:27.574Z,17.11
2019-05-10T09:52:04.497Z,16.98
2019-05-10T09:54:33.822Z,16.84
2019-05-10T09:57:08.058Z,16.72
2019-05-10T09:59:38.813Z,16.64
2019-05-10T10:02:16.481Z,16.55
2019-05-10T10:04:47.220Z,16.56
2019-05-10T10:07:24.271Z,16.61
2019-05-10T10:09:53.986Z,16.78
2019-05-10T10:12:25.519Z,16.93
2019-05-10T10:14:57.036Z,16.98
2019-05-10T10:17:30.727Z,17.13
2019-05-10T10:20:02.463Z,17.30
2019-05-10T10:22:34.672Z,17.53
2019-05-10T10:25:08.108Z,17.88
2019-05-10T10:27:39.815Z,18.01
2019-05-10T10:30:14.962Z,18.06
2019-05-10T10:32:47.706Z,18.27
2019-05-10T10:35:26.570Z,18.58
2019-05-10T10:37:57.337Z,18.78
2019-05-10T10:40:27.847Z,18.98
2019-05-10T10:42:59.643Z,19.23
2019-05-10T10:45:31.145Z,19.38
2019-05-10T10:48:10.699Z,19.66
2019-05-10T10:50:36.028Z,19.91
2019-05-10T10:53:08.356Z,20.09
2019-05-10T10:55:40.345Z,20.40
2019-05-10T10:58:12.621Z,20.43
2019-05-10T11:00:44.156Z,20.17
2019-05-10T11:03:15.694Z,20.04
2019-05-10T11:05:47.265Z,19.98
2019-05-10T11:08:18.886Z,20.06
2019-05-10T11:10:50.809Z,20.02
2019-05-10T11:13:40.577Z,20.00
2019-05-10T11:15:58.847Z,19.82
2019-05-10T11:18:31.788Z,19.48
2019-05-10T11:21:03.108Z,18.92
2019-05-10T11:23:38.991Z,18.30
2019-05-10T11:26:07.886Z,17.98
2019-05-10T11:28:43.887Z,17.59
2019-05-10T11:31:12.765Z,17.51
2019-05-10T11:33:47.378Z,17.44
2019-05-10T11:36:17.743Z,17.81
2019-05-10T11:38:56.534Z,18.19
2019-05-10T11:41:24.633Z,18.44
2019-05-10T11:43:58.068Z,18.21
2019-05-10T11:46:31.123Z,17.88
2019-05-10T11:49:04.719Z,17.87
2019-05-10T11:51:37.362Z,18.23
2019-05-10T11:54:11.017Z,18.45
2019-05-10T11:56:43.203Z,18.74
2019-05-10T11:59:16.533Z,18.86
2019-05-10T12:01:55.089Z,19.12
2019-05-10T12:04:28.962Z,19.26
2019-05-10T12:06:54.920Z,19.08
2019-05-10T12:09:26.519Z,19.16
2019-05-10T12:11:58.151Z,19.31
2019-05-10T12:14:30.739Z,19.36
2019-05-10T12:17:06.320Z,19.27
2019-05-10T12:19:44.547Z,19.21
2019-05-10T12:22:15.473Z,19.06
2019-05-10T12:24:53.972Z,19.21
2019-05-10T12:27:25.514Z,19.57
2019-05-10T12:29:55.438Z,19.63
2019-05-10T12:32:27.034Z,19.68
2019-05-10T12:34:57.929Z,19.39
2019-05-10T12:37:30.797Z,19.19
2019-05-10T12:40:09.787Z,19.09
2019-05-10T12:42:36.597Z,19.18
2019-05-10T12:45:10.188Z,19.30
2019-05-10T12:47:41.842Z,19.27
2019-05-10T12:50:16.398Z,19.40
2019-05-10T12:52:53.544Z,19.47
2019-05-10T12:55:21.295Z,19.61
2019-05-10T12:57:53.165Z,19.59
2019-05-10T13:00:24.914Z,19.55
2019-05-10T13:03:11.526Z,19.38
2019-05-10T13:05:33.949Z,19.19
2019-05-10T13:08:11.640Z,19.09
2019-05-10T13:10:45.845Z,18.80
2019-05-10T13:13:17.553Z,18.87
2019-05-10T13:15:49.783Z,19.13
2019-05-10T13:18:23.102Z,19.39
2019-05-10T13:20:55.059Z,19.58
2019-05-10T13:23:26.975Z,19.59
2019-05-10T13:25:59.207Z,19.31
2019-05-10T13:28:32.613Z,19.06
2019-05-10T13:31:05.553Z,18.87
2019-05-10T13:33:42.111Z,18.74
2019-05-10T13:36:11.887Z,18.56
2019-05-10T13:38:48.569Z,18.42
2019-05-10T13:41:24.457Z,18.35
2019-05-10T13:43:52.002Z,18.23
2019-05-10T13:46:23.950Z,18.14
2019-05-10T13:48:55.690Z,18.18
2019-05-10T13:51:27.288Z,18.15
2019-05-10T13:54:00.838Z,18.17
2019-05-10T13:56:34.319Z,18.15
2019-05-10T13:59:15.385Z,18.28
2019-05-10T14:01:44.227Z,18.44
2019-05-10T14:04:23.264Z,18.67
2019-05-10T14:06:57.770Z,18.80
2019-05-10T14:09:29.718Z,18.87
2019-05-10T14:12:01.315Z,18.63
2019-05-10T14:14:35.499Z,18.06
2019-05-10T14:17:07.267Z,17.66
2019-05-10T14:19:39.316Z,17.35
2019-05-10T14:22:11.614Z,17.08
2019-05-10T14:24:46.791Z,16.85
2019-05-10T14:27:16.557Z,16.62
2019-05-10T14:29:48.218Z,16.46
2019-05-10T14:32:19.945Z,16.25
2019-05-10T14:34:51.698Z,16.07
2019-05-10T14:37:23.252Z,15.96
2019-05-10T14:39:54.889Z,15.97
2019-05-10T14:42:31.079Z,15.93
2019-05-10T14:45:00.124Z,15.89
2019-05-10T14:47:31.620Z,15.93
2019-05-10T14:50:04.056Z,15.90
2019-05-10T14:52:36.139Z,15.93
2019-05-10T14:55:07.790Z,15.97
2019-05-10T14:57:39.299Z,16.03
2019-05-10T15:00:11.577Z,16.06
2019-05-10T15:02:44.894Z,16.07
2019-05-10T15:05:18.276Z,16.11
2019-05-10T15:07:51.186Z,16.15
2019-05-10T15:10:23.302Z,16.22
2019-05-10T15:12:56.040Z,16.23
2019-05-10T15:15:30.940Z,16.25
2019-05-10T15:18:02.223Z,16.29
2019-05-10T15:20:36.094Z,16.30
2019-05-10T15:23:07.467Z,16.25
2019-05-10T15:25:55.773Z,16.24
2019-05-10T15:28:15.520Z,16.24
2019-05-10T15:30:52.582Z,16.24
2019-05-10T15:33:26.059Z,16.16
2019-05-10T15:35:58.747Z,16.11
2019-05-10T15:38:30.389Z,16.12
2019-05-10T15:41:02.016Z,16.08
2019-05-10T15:43:35.181Z,16.03
2019-05-10T15:46:07.531Z,16.00
2019-05-10T15:48:41.689Z,15.97
2019-05-10T15:51:16.900Z,15.95
2019-05-10T15:53:46.756Z,15.87
2019-05-10T15:56:21.622Z,15.85
2019-05-10T15:58:53.129Z,15.77
2019-05-10T16:01:29.182Z,15.73
2019-05-10T16:04:02.099Z,15.69
2019-05-10T16:06:37.816Z,15.66
2019-05-10T16:09:16.903Z,15.58
2019-05-10T16:11:42.215Z,15.49
2019-05-10T16:14:13.775Z,15.40
2019-05-10T16:16:48.779Z,15.32
2019-05-10T16:19:22.059Z,15.25
2019-05-10T16:21:58.117Z,15.14
2019-05-10T16:24:29.193Z,15.02
2019-05-10T16:27:02.858Z,14.91
2019-05-10T16:29:39.717Z,14.77
2019-05-10T16:32:13.059Z,14.65
2019-05-10T16:34:47.993Z,14.49
2019-05-10T16:37:20.698Z,14.37
2019-05-10T16:39:55.408Z,14.25
2019-05-10T16:42:28.002Z,14.13
2019-05-10T16:45:02.036Z,14.01
2019-05-10T16:47:33.941Z,13.90
2019-05-10T16:50:08.631Z,13.78
2019-05-10T16:52:40.273Z,13.69
2019-05-10T16:55:14.429Z,13.61
2019-05-10T16:57:47.538Z,13.51
2019-05-10T17:00:19.456Z,13.40
2019-05-10T17:02:51.278Z,13.32
2019-05-10T17:05:23.023Z,13.24
2019-05-10T17:07:58.824Z,13.17
2019-05-10T17:10:32.932Z,13.10
2019-05-10T17:13:05.027Z,13.00
2019-05-10T17:15:39.688Z,12.91
2019-05-10T17:18:16.679Z,12.85
2019-05-10T17:20:50.945Z,12.75
2019-05-10T17:23:22.758Z,12.67
2019-05-10T17:25:55.201Z,12.58
2019-05-10T17:28:29.583Z,12.51
2019-05-10T17:31:07.910Z,12.43
2019-05-10T17:33:42.687Z,12.42
2019-05-10T17:36:14.446Z,12.43
2019-05-10T17:38:53.401Z,12.33
2019-05-10T17:41:26.961Z,12.26
2019-05-10T17:44:00.056Z,12.19
2019-05-10T17:46:36.314Z,12.11
2019-05-10T17:49:08.019Z,12.03
2019-05-10T17:51:41.810Z,12.03
2019-05-10T17:54:13.551Z,11.97
2019-05-10T17:56:45.319Z,12.01
2019-05-10T17:59:21.825Z,12.01
2019-05-10T18:01:54.678Z,12.01
2019-05-10T18:04:27.779Z,12.00
2019-05-10T18:07:00.623Z,11.98
2019-05-10T18:09:35.697Z,12.00
2019-05-10T18:12:15.664Z,11.90
2019-05-10T18:14:50.141Z,11.84
2019-05-10T18:17:25.973Z,11.75
2019-05-10T18:20:02.352Z,11.64
2019-05-10T18:22:43.318Z,11.61
2019-05-10T18:25:19.554Z,11.59
2019-05-10T18:27:48.029Z,11.49
2019-05-10T18:30:24.531Z,11.42
2019-05-10T18:33:00.493Z,11.35
2019-05-10T18:35:37.199Z,11.27
2019-05-10T18:38:14.903Z,11.19
2019-05-10T18:40:47.636Z,11.14
2019-05-10T18:43:19.348Z,11.12
2019-05-10T18:45:54.079Z,11.09
2019-05-10T18:48:29.829Z,11.07
2019-05-10T18:51:04.650Z,11.07
2019-05-10T18:53:36.315Z,11.08
2019-05-10T18:56:11.373Z,11.10
2019-05-10T18:58:44.924Z,11.10
2019-05-10T19:01:38.850Z,11.10
2019-05-10T19:04:07.183Z,11.01
2019-05-10T19:06:50.008Z,11.02
2019-05-10T19:09:20.489Z,10.95
2019-05-10T19:11:58.404Z,10.90
2019-05-10T19:14:35.221Z,10.88
2019-05-10T19:17:09.440Z,10.82
2019-05-10T19:19:42.484Z,10.82
2019-05-10T19:22:14.650Z,10.78
2019-05-10T19:24:56.676Z,10.76
2019-05-10T19:27:29.825Z,10.76
2019-05-10T19:30:01.439Z,10.70
2019-05-10T19:32:39.214Z,10.65
2019-05-10T19:35:11.147Z,10.66
2019-05-10T19:37:43.232Z,10.60
2019-05-10T19:40:18.031Z,10.60
2019-05-10T19:42:49.832Z,10.57
2019-05-10T19:45:21.966Z,10.51
2019-05-10T19:47:55.787Z,10.46
2019-05-10T19:50:31.380Z,10.38
2019-05-10T19:53:05.481Z,10.31
2019-05-10T19:55:37.526Z,10.39
2019-05-10T19:58:09.298Z,10.38
2019-05-10T20:00:41.963Z,10.31
2019-05-10T20:03:14.182Z,10.27
2019-05-10T20:05:45.983Z,10.24
2019-05-10T20:08:18.642Z,10.08
2019-05-10T20:10:51.133Z,10.08
2019-05-10T20:13:24.454Z,10.10
2019-05-10T20:15:56.356Z,10.09
2019-05-10T20:18:30.552Z,10.07
2019-05-10T20:21:04.181Z,10.01
2019-05-10T20:23:35.776Z,9.97
2019-05-10T20:26:07.676Z,9.99
2019-05-10T20:28:39.445Z,9.99
2019-05-10T20:31:12.598Z,9.97
2019-05-10T20:33:48.841Z,9.94
2019-05-10T20:36:20.687Z,9.96
2019-05-10T20:38:52.786Z,9.94
2019-05-10T20:41:24.546Z,9.91
2019-05-10T20:43:56.855Z,9.88
2019-05-10T20:46:28.569Z,9.84
2019-05-10T20:49:01.753Z,9.82
2019-05-10T20:51:33.486Z,9.80
2019-05-10T20:54:06.967Z,9.80
2019-05-10T20:56:38.818Z,9.81
2019-05-10T20:59:10.584Z,9.84
2019-05-10T21:01:45.660Z,9.88
2019-05-10T21:04:19.921Z,9.97
2019-05-10T21:06:53.155Z,9.99
2019-05-10T21:09:30.541Z,10.07
2019-05-10T21:12:03.511Z,10.12
2019-05-10T21:14:38.300Z,10.10
2019-05-10T21:17:10.149Z,10.12
2019-05-10T21:19:43.846Z,10.12
2019-05-10T21:22:15.483Z,10.08
2019-05-10T21:24:50.633Z,10.05
2019-05-10T21:27:26.474Z,10.04
2019-05-10T21:29:58.261Z,10.08
2019-05-10T21:32:30.105Z,10.12
2019-05-10T21:35:01.734Z,10.12
2019-05-10T21:37:33.453Z,10.22
2019-05-10T21:40:07.787Z,10.27
2019-05-10T21:42:41.240Z,10.28
2019-05-10T21:45:15.219Z,10.29
2019-05-10T21:47:51.777Z,10.31
2019-05-10T21:50:20.639Z,10.35
2019-05-10T21:52:53.776Z,10.41
2019-05-10T21:55:27.072Z,10.43
2019-05-10T21:57:59.058Z,10.44
2019-05-10T22:00:34.018Z,10.45
2019-05-10T22:03:06.608Z,10.47
2019-05-10T22:05:38.878Z,10.49
2019-05-10T22:08:10.618Z,10.52
2019-05-10T22:10:42.410Z,10.61
2019-05-10T22:13:14.373Z,10.62
2019-05-10T22:15:46.110Z,10.63
2019-05-10T22:18:17.899Z,10.63
2019-05-10T22:20:49.710Z,10.63
2019-05-10T22:23:21.564Z,10.68
2019-05-10T22:25:53.295Z,10.68
2019-05-10T22:28:24.895Z,10.68
2019-05-10T22:30:56.574Z,10.79
2019-05-10T22:33:28.275Z,10.85
2019-05-10T22:36:00.182Z,10.73
2019-05-10T22:38:31.893Z,10.73
2019-05-10T22:41:03.749Z,10.77
2019-05-10T22:43:35.499Z,10.71
2019-05-10T22:46:07.199Z,10.71
2019-05-10T22:48:38.960Z,10.71
2019-05-10T22:51:10.718Z,10.74
2019-05-10T22:53:42.349Z,10.77
2019-05-10T22:56:13.965Z,10.77
2019-05-10T22:58:45.664Z,10.76
2019-05-10T23:01:17.494Z,10.74
2019-05-10T23:03:49.255Z,10.67
2019-05-10T23:06:20.987Z,10.67
2019-05-10T23:08:52.796Z,10.58
2019-05-10T23:11:24.620Z,10.48
2019-05-10T23:13:56.445Z,10.38
2019-05-10T23:16:29.889Z,10.28
2019-05-10T23:19:01.688Z,10.21
2019-05-10T23:21:33.329Z,10.18
2019-05-10T23:24:06.824Z,10.16
2019-05-10T23:26:39.582Z,10.16
2019-05-10T23:29:11.256Z,10.18
2019-05-10T23:31:42.968Z,10.19
2019-05-10T23:34:14.999Z,10.20
2019-05-10T23:36:46.675Z,10.22
2019-05-10T23:39:18.433Z,10.28
2019-05-10T23:41:50.146Z,10.37
2019-05-10T23:44:21.995Z,10.37
2019-05-10T23:46:54.313Z,10.37
2019-05-10T23:49:26.007Z,10.37
2019-05-10T23:51:57.720Z,10.39
2019-05-10T23:54:29.691Z,10.45
2019-05-10T23:57:02.728Z,10.38
2019-05-10T23:59:34.515Z,10.35
